createdAt,value
2018-04-19T00:02:01.155Z,66.40
2018-04-19T00:04:29.428Z,65.90
2018-04-19T00:06:58.226Z,66.90
2018-04-19T00:09:25.739Z,66.80
2018-04-19T00:11:54.028Z,66.90
2018-04-19T00:14:21.541Z,67.20
2018-04-19T00:16:49.086Z,66.70
2018-04-19T00:19:17.256Z,66.40
2018-04-19T00:21:44.801Z,67.10
2018-04-19T00:24:13.100Z,68.00
2018-04-19T00:26:40.634Z,68.00
2018-04-19T00:29:08.965Z,68.00
2018-04-19T00:31:36.484Z,67.90
2018-04-19T00:34:04.796Z,68.20
2018-04-19T00:36:32.327Z,68.20
2018-04-19T00:38:59.856Z,66.80
2018-04-19T00:41:27.382Z,67.40
2018-04-19T00:43:55.347Z,67.10
2018-04-19T00:46:22.868Z,67.10
2018-04-19T00:48:51.157Z,67.60
2018-04-19T00:51:18.683Z,67.60
2018-04-19T00:53:46.257Z,67.10
2018-04-19T01:09:18.829Z,67.20
2018-04-19T01:11:47.121Z,70.30
2018-04-19T01:14:14.632Z,70.30
2018-04-19T01:16:42.167Z,70.70
2018-04-19T01:19:09.733Z,70.40
2018-04-19T01:21:37.264Z,70.30
2018-04-19T01:24:04.781Z,70.00
2018-04-19T01:26:32.344Z,69.60
2018-04-19T01:28:59.855Z,69.50
2018-04-19T01:31:27.375Z,69.80
2018-04-19T01:33:56.004Z,70.10
2018-04-19T01:36:25.484Z,70.10
2018-04-19T01:38:53.033Z,70.10
2018-04-19T01:41:21.323Z,71.20
2018-04-19T01:43:49.764Z,71.20
2018-04-19T01:46:17.280Z,71.20
2018-04-19T01:48:44.825Z,71.40
2018-04-19T01:51:12.379Z,71.20
2018-04-19T01:53:39.903Z,71.20
2018-04-19T01:56:07.438Z,71.00
2018-04-19T01:58:34.966Z,70.70
2018-04-19T02:01:02.494Z,70.80
2018-04-19T02:03:30.779Z,71.00
2018-04-19T02:05:59.079Z,71.30
2018-04-19T02:08:27.422Z,71.20
2018-04-19T02:10:54.984Z,71.00
2018-04-19T02:13:22.499Z,71.60
2018-04-19T02:15:50.785Z,71.20
2018-04-19T02:18:18.288Z,71.40
2018-04-19T02:20:46.567Z,71.60
2018-04-19T02:23:14.873Z,72.20
2018-04-19T02:25:42.395Z,72.20
2018-04-19T02:28:10.694Z,72.80
2018-04-19T02:30:38.220Z,72.80
2018-04-19T02:33:05.768Z,72.80
2018-04-19T02:35:33.293Z,73.20
2018-04-19T02:38:00.815Z,73.80
2018-04-19T02:40:29.100Z,74.10
2018-04-19T02:42:57.400Z,73.60
2018-04-19T02:45:24.920Z,73.60
2018-04-19T02:47:53.226Z,73.70
2018-04-19T02:50:20.764Z,73.70
2018-04-19T02:52:49.056Z,75.00
2018-04-19T02:55:17.359Z,75.00
2018-04-19T02:57:45.131Z,74.90
2018-04-19T03:00:12.671Z,75.00
2018-04-19T03:02:40.219Z,74.80
2018-04-19T03:05:08.523Z,74.00
2018-04-19T03:07:36.049Z,73.90
2018-04-19T03:10:04.344Z,74.50
2018-04-19T03:12:31.943Z,74.40
2018-04-19T03:14:59.481Z,74.60
2018-04-19T03:17:27.093Z,73.60
2018-04-19T03:19:54.640Z,74.20
2018-04-19T03:22:22.279Z,74.20
2018-04-19T03:24:49.836Z,73.80
2018-04-19T03:27:18.134Z,73.30
2018-04-19T03:29:45.675Z,73.30
2018-04-19T03:32:13.938Z,73.30
2018-04-19T03:34:41.460Z,73.30
2018-04-19T03:37:09.752Z,73.70
2018-04-19T03:39:37.276Z,73.70
2018-04-19T03:42:04.807Z,73.70
2018-04-19T03:44:33.379Z,74.90
2018-04-19T03:47:00.910Z,74.90
2018-04-19T03:49:28.446Z,75.90
2018-04-19T03:51:55.976Z,76.00
2018-04-19T03:54:23.520Z,76.50
2018-04-19T03:56:51.036Z,76.30
2018-04-19T03:59:19.330Z,76.50
2018-04-19T04:01:46.870Z,76.30
2018-04-19T04:04:15.215Z,75.50
2018-04-19T04:06:42.748Z,75.50
2018-04-19T04:09:10.286Z,76.00
2018-04-19T04:11:37.812Z,75.50
2018-04-19T04:14:05.341Z,75.90
2018-04-19T04:19:56.761Z,76.40
2018-04-19T04:22:36.165Z,76.50
2018-04-19T04:25:04.477Z,75.90
2018-04-19T04:27:31.999Z,75.70
2018-04-19T04:30:00.303Z,77.10
2018-04-19T04:32:27.813Z,77.00
2018-04-19T04:34:55.364Z,76.90
2018-04-19T04:37:23.317Z,76.90
2018-04-19T04:39:52.065Z,76.30
2018-04-19T04:42:20.374Z,76.20
2018-04-19T04:44:47.892Z,76.20
2018-04-19T04:47:16.179Z,76.50
2018-04-19T04:49:44.461Z,76.50
2018-04-19T04:52:12.760Z,76.80
2018-04-19T04:54:40.301Z,76.80
2018-04-19T04:57:08.155Z,76.50
2018-04-19T04:59:36.497Z,77.00
2018-04-19T05:02:04.033Z,77.00
2018-04-19T05:04:31.547Z,77.80
2018-04-19T05:06:59.851Z,77.30
2018-04-19T05:09:27.912Z,77.30
2018-04-19T05:11:55.426Z,77.00
2018-04-19T05:14:23.036Z,77.10
2018-04-19T05:16:50.567Z,77.00
2018-04-19T05:19:18.847Z,77.90
2018-04-19T05:21:47.139Z,77.30
2018-04-19T05:24:15.439Z,76.90
2018-04-19T05:26:42.946Z,76.80
2018-04-19T05:29:10.468Z,76.50
2018-04-19T05:31:38.125Z,76.80
2018-04-19T05:34:05.723Z,76.60
2018-04-19T05:36:33.338Z,76.30
2018-04-19T05:39:00.926Z,76.20
2018-04-19T05:41:29.232Z,74.70
2018-04-19T05:43:56.749Z,74.80
2018-04-19T05:46:24.294Z,74.50
2018-04-19T05:48:51.812Z,74.50
2018-04-19T05:51:19.352Z,74.40
2018-04-19T05:53:46.876Z,73.70
2018-04-19T05:56:14.408Z,73.50
2018-04-19T05:58:42.862Z,72.60
2018-04-19T06:01:10.401Z,72.60
2018-04-19T06:03:37.928Z,71.80
2018-04-19T06:06:05.489Z,71.40
2018-04-19T06:08:32.996Z,71.50
2018-04-19T06:11:00.542Z,70.90
2018-04-19T06:13:28.089Z,70.40
2018-04-19T06:15:55.612Z,70.00
2018-04-19T06:18:23.909Z,68.90
2018-04-19T06:20:51.420Z,68.70
2018-04-19T06:23:18.952Z,68.70
2018-04-19T06:25:46.485Z,68.40
2018-04-19T06:28:14.008Z,67.80
2018-04-19T06:30:42.295Z,66.80
2018-04-19T06:33:10.605Z,67.30
2018-04-19T06:35:38.166Z,67.30
2018-04-19T06:38:05.740Z,66.10
2018-04-19T06:40:33.352Z,65.20
2018-04-19T06:43:01.644Z,64.30
2018-04-19T06:45:29.181Z,64.30
2018-04-19T06:47:57.468Z,62.30
2018-04-19T06:50:25.759Z,62.30
2018-04-19T06:52:54.041Z,62.30
2018-04-19T06:55:22.383Z,61.30
2018-04-19T06:57:49.895Z,61.20
2018-04-19T07:00:17.426Z,61.30
2018-04-19T07:02:45.715Z,60.90
2018-04-19T07:05:13.285Z,60.90
2018-04-19T07:07:40.795Z,60.40
2018-04-19T07:10:08.299Z,60.20
2018-04-19T07:12:36.361Z,61.40
2018-04-19T07:15:03.899Z,59.70
2018-04-19T07:17:32.226Z,58.50
2018-04-19T07:20:00.852Z,57.80
2018-04-19T07:22:29.087Z,58.70
2018-04-19T07:24:56.599Z,57.20
2018-04-19T07:27:25.021Z,56.20
2018-04-19T07:29:52.590Z,56.20
2018-04-19T07:32:20.117Z,54.70
2018-04-19T07:34:48.400Z,54.90
2018-04-19T07:37:15.954Z,54.60
2018-04-19T07:39:43.502Z,53.50
2018-04-19T07:42:57.568Z,53.30
2018-04-19T07:45:25.105Z,53.30
2018-04-19T07:47:53.392Z,52.60
2018-04-19T07:50:21.807Z,51.30
2018-04-19T07:52:50.261Z,51.30
2018-04-19T07:55:17.833Z,50.50
2018-04-19T07:57:45.370Z,51.00
2018-04-19T08:00:13.680Z,49.60
2018-04-19T08:02:41.213Z,49.60
2018-04-19T08:05:09.626Z,48.70
2018-04-19T08:07:37.155Z,48.70
2018-04-19T08:10:04.796Z,49.20
2018-04-19T08:12:33.169Z,47.20
2018-04-19T08:15:00.861Z,47.00
2018-04-19T08:17:29.263Z,46.60
2018-04-19T08:19:56.928Z,45.50
2018-04-19T08:22:24.511Z,45.40
2018-04-19T08:24:52.129Z,43.80
2018-04-19T08:27:19.688Z,43.10
2018-04-19T08:29:47.212Z,43.70
2018-04-19T08:32:14.735Z,43.30
2018-04-19T08:34:42.265Z,43.30
2018-04-19T08:37:09.796Z,42.60
2018-04-19T08:39:38.015Z,42.20
2018-04-19T08:42:05.570Z,42.20
2018-04-19T08:44:33.863Z,41.90
2018-04-19T08:47:01.380Z,41.80
2018-04-19T08:49:29.687Z,41.10
2018-04-19T08:51:57.319Z,41.30
2018-04-19T08:54:25.743Z,40.30
2018-04-19T08:56:53.271Z,40.30
2018-04-19T08:59:20.912Z,39.90
2018-04-19T09:01:48.448Z,40.10
2018-04-19T09:04:15.979Z,38.20
2018-04-19T09:06:44.215Z,40.40
2018-04-19T09:09:12.521Z,38.80
2018-04-19T09:11:40.058Z,38.70
2018-04-19T09:14:08.379Z,37.60
2018-04-19T09:16:35.939Z,37.60
2018-04-19T09:19:03.487Z,36.60
2018-04-19T09:21:31.007Z,36.60
2018-04-19T09:23:59.298Z,34.70
2018-04-19T09:26:27.715Z,36.40
2018-04-19T09:28:55.409Z,36.30
2018-04-19T09:31:24.455Z,37.10
2018-04-19T09:33:52.759Z,37.00
2018-04-19T09:36:20.286Z,35.70
2018-04-19T09:38:47.858Z,34.50
2018-04-19T09:41:15.395Z,33.70
2018-04-19T09:43:42.931Z,35.60
2018-04-19T09:46:10.478Z,34.80
2018-04-19T09:48:38.032Z,35.30
2018-04-19T09:51:05.597Z,32.80
2018-04-19T09:53:33.132Z,33.50
2018-04-19T09:56:00.679Z,34.20
2018-04-19T09:58:28.330Z,33.60
2018-04-19T10:01:01.598Z,33.50
2018-04-19T10:03:29.894Z,32.10
2018-04-19T10:06:00.408Z,32.00
2018-04-19T10:08:28.705Z,30.70
2018-04-19T10:10:56.259Z,30.70
2018-04-19T10:13:24.212Z,30.60
2018-04-19T10:15:52.520Z,30.50
2018-04-19T10:18:20.062Z,30.50
2018-04-19T10:20:47.593Z,30.70
2018-04-19T10:23:15.830Z,29.40
2018-04-19T10:25:43.388Z,29.90
2018-04-19T10:28:11.606Z,32.60
2018-04-19T10:30:39.903Z,29.60
2018-04-19T10:33:08.300Z,28.40
2018-04-19T10:35:36.105Z,28.30
2018-04-19T10:38:03.632Z,28.70
2018-04-19T10:40:31.158Z,28.00
2018-04-19T10:42:59.460Z,28.00
2018-04-19T10:45:27.009Z,27.90
2018-04-19T10:47:55.259Z,28.10
2018-04-19T10:50:22.771Z,28.10
2018-04-19T10:52:50.344Z,27.80
2018-04-19T10:55:17.887Z,27.90
2018-04-19T10:57:45.455Z,27.10
2018-04-19T11:00:12.978Z,28.10
2018-04-19T11:02:41.271Z,29.20
2018-04-19T11:05:08.799Z,29.10
2018-04-19T11:07:36.343Z,27.60
2018-04-19T11:10:03.924Z,28.40
2018-04-19T11:12:32.202Z,28.70
2018-04-19T11:15:00.510Z,26.50
2018-04-19T11:17:28.053Z,26.40
2018-04-19T11:19:55.649Z,27.40
2018-04-19T11:22:23.188Z,29.00
2018-04-19T11:24:50.800Z,28.50
2018-04-19T11:27:18.319Z,29.40
2018-04-19T11:29:45.918Z,29.90
2018-04-19T11:32:13.470Z,29.00
2018-04-19T11:34:41.026Z,28.30
2018-04-19T11:37:08.566Z,28.40
2018-04-19T11:39:36.091Z,28.30
2018-04-19T11:42:03.877Z,28.20
2018-04-19T11:44:31.412Z,27.80
2018-04-19T11:46:59.728Z,29.60
2018-04-19T11:49:27.243Z,29.50
2018-04-19T11:51:55.546Z,29.30
2018-04-19T11:54:23.071Z,29.20
2018-04-19T11:56:51.391Z,28.80
2018-04-19T11:59:18.922Z,28.70
2018-04-19T12:01:47.820Z,30.20
2018-04-19T12:04:15.340Z,30.20
2018-04-19T12:06:42.889Z,29.80
2018-04-19T12:09:10.433Z,29.80
2018-04-19T12:11:37.984Z,30.30
2018-04-19T12:14:05.540Z,29.30
2018-04-19T12:16:33.067Z,29.60
2018-04-19T12:19:01.487Z,28.20
2018-04-19T12:21:29.016Z,28.20
2018-04-19T12:23:57.264Z,28.60
2018-04-19T12:26:24.787Z,29.70
2018-04-19T12:28:52.433Z,28.80
2018-04-19T12:31:19.949Z,25.70
2018-04-19T12:33:47.481Z,28.00
2018-04-19T12:36:15.041Z,28.00
2018-04-19T12:38:42.574Z,28.50
2018-04-19T12:41:10.137Z,28.20
2018-04-19T12:43:37.656Z,29.20
2018-04-19T12:46:05.955Z,27.80
2018-04-19T12:48:33.608Z,27.70
2018-04-19T12:51:02.440Z,28.40
2018-04-19T12:53:29.963Z,28.40
2018-04-19T12:55:57.499Z,28.90
2018-04-19T12:58:25.095Z,28.70
2018-04-19T13:00:52.616Z,29.10
2018-04-19T13:03:20.171Z,27.70
2018-04-19T13:05:47.693Z,26.50
2018-04-19T13:08:15.304Z,27.60
2018-04-19T13:10:43.619Z,28.00
2018-04-19T13:13:11.221Z,28.00
2018-04-19T13:15:38.944Z,27.90
2018-04-19T13:18:06.483Z,27.60
2018-04-19T13:20:34.775Z,25.50
2018-04-19T13:23:02.319Z,25.40
2018-04-19T13:25:29.848Z,28.00
2018-04-19T13:27:57.406Z,27.90
2018-04-19T13:30:24.954Z,27.50
2018-04-19T13:32:52.466Z,27.60
2018-04-19T13:35:19.984Z,27.60
2018-04-19T13:37:47.510Z,28.30
2018-04-19T13:40:15.080Z,28.30
2018-04-19T13:42:42.649Z,29.40
2018-04-19T13:45:10.221Z,29.30
2018-04-19T13:47:37.836Z,28.70
2018-04-19T13:50:06.307Z,27.30
2018-04-19T13:52:33.860Z,26.20
2018-04-19T13:55:02.207Z,24.70
2018-04-19T13:57:29.922Z,24.80
2018-04-19T13:59:57.464Z,24.80
2018-04-19T14:02:24.993Z,24.40
2018-04-19T14:04:52.524Z,24.60
2018-04-19T14:07:20.764Z,25.50
2018-04-19T14:09:48.290Z,25.50
2018-04-19T14:12:15.816Z,24.70
2018-04-19T14:14:43.402Z,24.80
2018-04-19T14:17:11.499Z,24.70
2018-04-19T14:19:39.794Z,25.10
2018-04-19T14:22:07.350Z,25.10
2018-04-19T14:24:34.859Z,25.60
2018-04-19T14:27:02.411Z,24.90
2018-04-19T14:29:29.943Z,25.40
2018-04-19T14:31:57.496Z,26.80
2018-04-19T14:34:25.122Z,27.10
2018-04-19T14:36:52.661Z,26.60
2018-04-19T14:39:20.240Z,27.40
2018-04-19T14:41:47.783Z,27.80
2018-04-19T14:44:16.472Z,28.40
2018-04-19T14:46:44.734Z,29.00
2018-04-19T14:49:16.673Z,29.00
2018-04-19T14:51:44.949Z,28.80
2018-04-19T14:54:12.524Z,28.80
2018-04-19T14:56:40.103Z,28.10
2018-04-19T14:59:07.663Z,28.00
2018-04-19T15:01:35.258Z,27.40
2018-04-19T15:04:03.552Z,26.70
2018-04-19T15:06:31.119Z,26.70
2018-04-19T15:09:02.531Z,26.30
2018-04-19T15:11:30.117Z,25.70
2018-04-19T15:13:58.411Z,24.80
2018-04-19T15:16:25.936Z,24.80
2018-04-19T15:18:54.253Z,26.40
2018-04-19T15:21:21.812Z,26.30
2018-04-19T15:23:49.377Z,25.20
2018-04-19T15:26:16.899Z,26.00
2018-04-19T15:28:45.222Z,26.50
2018-04-19T15:31:12.757Z,26.50
2018-04-19T15:33:40.304Z,26.10
2018-04-19T15:36:08.583Z,25.50
2018-04-19T15:38:36.990Z,25.90
2018-04-19T15:41:05.500Z,25.80
2018-04-19T15:43:33.071Z,26.40
2018-04-19T15:46:00.605Z,26.60
2018-04-19T15:48:28.129Z,27.00
2018-04-19T15:50:55.901Z,26.70
2018-04-19T15:53:23.442Z,26.50
2018-04-19T15:55:51.754Z,26.60
2018-04-19T15:58:19.802Z,26.50
2018-04-19T16:00:47.364Z,27.80
2018-04-19T16:03:14.901Z,28.70
2018-04-19T16:05:43.437Z,29.30
2018-04-19T16:08:11.014Z,29.20
2018-04-19T16:10:38.633Z,29.80
2018-04-19T16:13:06.185Z,29.40
2018-04-19T16:15:33.748Z,30.00
2018-04-19T16:18:01.315Z,29.00
2018-04-19T16:20:28.833Z,29.50
2018-04-19T16:22:56.394Z,29.90
2018-04-19T16:25:23.928Z,31.40
2018-04-19T16:27:51.493Z,32.20
2018-04-19T16:30:19.043Z,32.80
2018-04-19T16:32:46.567Z,32.40
2018-04-19T16:35:14.098Z,32.50
2018-04-19T16:37:41.631Z,32.90
2018-04-19T16:40:11.816Z,35.20
2018-04-19T16:42:39.330Z,35.20
2018-04-19T16:45:06.936Z,37.20
2018-04-19T16:47:35.085Z,38.20
2018-04-19T16:50:02.585Z,39.20
2018-04-19T16:52:30.100Z,39.80
2018-04-19T16:54:58.378Z,40.00
2018-04-19T16:57:26.693Z,40.40
2018-04-19T16:59:54.222Z,40.30
2018-04-19T17:02:23.396Z,41.00
2018-04-19T17:04:50.931Z,41.00
2018-04-19T17:07:18.468Z,41.30
2018-04-19T17:09:45.991Z,41.20
2018-04-19T17:12:14.291Z,42.20
2018-04-19T17:14:41.840Z,42.20
2018-04-19T17:17:09.451Z,42.80
2018-04-19T17:22:11.713Z,43.30
2018-04-19T17:24:39.244Z,43.20
2018-04-19T17:27:07.558Z,43.20
2018-04-19T17:29:35.162Z,43.10
2018-04-19T17:32:02.742Z,43.10
2018-04-19T17:34:31.048Z,43.10
2018-04-19T17:36:58.588Z,43.00
2018-04-19T17:39:26.528Z,42.60
2018-04-19T17:41:54.101Z,42.20
2018-04-19T17:44:23.750Z,42.70
2018-04-19T17:46:54.020Z,42.60
2018-04-19T17:49:21.872Z,43.30
2018-04-19T17:51:49.404Z,43.30
2018-04-19T17:54:16.958Z,42.90
2018-04-19T17:56:44.525Z,43.80
2018-04-19T17:59:12.060Z,43.80
2018-04-19T18:01:39.676Z,43.60
2018-04-19T18:04:07.269Z,44.70
2018-04-19T18:06:35.584Z,44.80
2018-04-19T18:09:03.116Z,44.80
2018-04-19T18:11:30.711Z,45.00
2018-04-19T18:13:59.191Z,45.10
2018-04-19T18:16:26.778Z,45.10
2018-04-19T18:18:54.289Z,45.50
2018-04-19T18:21:22.728Z,45.70
2018-04-19T18:23:50.293Z,46.80
2018-04-19T18:26:18.613Z,47.80
2018-04-19T18:28:46.150Z,47.80
2018-04-19T18:31:14.444Z,48.40
2018-04-19T18:33:41.985Z,48.40
2018-04-19T18:36:10.286Z,49.40
2018-04-19T18:38:37.851Z,49.40
2018-04-19T18:41:05.367Z,48.80
2018-04-19T18:43:33.682Z,49.10
2018-04-19T18:46:01.219Z,49.00
2018-04-19T18:48:29.682Z,49.60
2018-04-19T18:50:57.259Z,49.60
2018-04-19T18:53:25.854Z,49.50
2018-04-19T18:55:54.056Z,49.50
2018-04-19T18:58:21.605Z,49.70
2018-04-19T19:00:49.166Z,49.90
2018-04-19T19:03:16.693Z,49.10
2018-04-19T19:05:45.013Z,50.10
2018-04-19T19:08:12.545Z,50.10
2018-04-19T19:10:40.193Z,49.60
2018-04-19T19:13:08.507Z,49.70
2018-04-19T19:19:05.911Z,50.20
2018-04-19T19:21:33.489Z,49.10
2018-04-19T19:24:01.655Z,50.00
2018-04-19T19:26:29.195Z,49.50
2018-04-19T19:28:56.732Z,49.60
2018-04-19T19:31:24.964Z,49.70
2018-04-19T19:33:52.492Z,50.20
2018-04-19T19:36:20.030Z,50.80
2018-04-19T19:38:48.831Z,50.30
2018-04-19T19:41:16.368Z,50.10
2018-04-19T19:43:43.930Z,50.50
2018-04-19T19:46:11.482Z,50.20
2018-04-19T19:48:39.861Z,50.80
2018-04-19T19:51:11.367Z,51.30
2018-04-19T19:53:38.894Z,51.00
2018-04-19T19:56:06.433Z,50.60
2018-04-19T19:58:33.963Z,50.60
2018-04-19T20:01:01.514Z,50.60
2018-04-19T20:03:29.481Z,50.70
2018-04-19T20:05:57.037Z,51.30
2018-04-19T20:08:24.607Z,51.00
2018-04-19T20:10:52.147Z,51.00
2018-04-19T20:13:19.697Z,51.30
2018-04-19T20:15:47.592Z,51.30
2018-04-19T20:18:15.140Z,51.30
2018-04-19T20:20:42.872Z,51.90
2018-04-19T20:23:10.489Z,51.90
2018-04-19T20:25:39.280Z,52.10
2018-04-19T20:28:11.868Z,52.50
2018-04-19T20:30:40.189Z,52.60
2018-04-19T20:33:07.741Z,52.60
2018-04-19T20:35:35.921Z,52.50
2018-04-19T20:38:03.426Z,52.60
2018-04-19T20:40:30.947Z,52.90
2018-04-19T20:42:58.480Z,53.40
2018-04-19T20:45:26.012Z,53.30
2018-04-19T20:47:53.612Z,53.30
2018-04-19T20:50:21.144Z,53.60
2018-04-19T20:52:49.430Z,54.30
2018-04-19T20:55:17.012Z,54.30
2018-04-19T20:57:44.577Z,54.00
2018-04-19T21:00:12.141Z,54.20
2018-04-19T21:02:39.692Z,54.50
2018-04-19T21:05:07.346Z,54.90
2018-04-19T21:07:34.897Z,55.20
2018-04-19T21:10:02.464Z,55.10
2018-04-19T21:12:30.209Z,55.30
2018-04-19T21:14:58.660Z,55.40
2018-04-19T21:17:26.285Z,55.40
2018-04-19T21:19:53.863Z,55.70
2018-04-19T21:22:21.482Z,56.20
2018-04-19T21:24:49.016Z,56.50
2018-04-19T21:27:17.322Z,56.90
2018-04-19T21:29:44.831Z,56.90
2018-04-19T21:32:12.416Z,56.80
2018-04-19T21:34:40.711Z,56.80
2018-04-19T21:37:08.231Z,56.80
2018-04-19T21:39:35.759Z,56.90
2018-04-19T21:42:03.341Z,57.20
2018-04-19T21:44:30.868Z,57.50
2018-04-19T21:46:58.408Z,57.60
2018-04-19T21:49:25.958Z,58.10
2018-04-19T21:51:54.421Z,58.30
2018-04-19T21:54:21.996Z,58.20
2018-04-19T21:56:50.312Z,58.40
2018-04-19T21:59:17.875Z,58.40
2018-04-19T22:01:45.424Z,58.60
2018-04-19T22:04:12.969Z,58.60
2018-04-19T22:06:40.518Z,59.00
2018-04-19T22:09:08.816Z,58.30
2018-04-19T22:11:36.331Z,58.20
2018-04-19T22:14:03.888Z,58.80
2018-04-19T22:16:31.413Z,59.20
2018-04-19T22:18:58.978Z,58.80
2018-04-19T22:21:26.544Z,59.30
2018-04-19T22:23:54.162Z,59.50
2018-04-19T22:26:26.446Z,59.60
2018-04-19T22:28:53.971Z,59.50
2018-04-19T22:31:21.512Z,59.20
2018-04-19T22:33:49.022Z,59.10
2018-04-19T22:36:16.608Z,59.00
2018-04-19T22:38:44.135Z,58.80
2018-04-19T22:41:12.022Z,58.70
2018-04-19T22:43:39.567Z,58.80
2018-04-19T22:46:07.101Z,59.30
2018-04-19T22:48:35.400Z,59.20
2018-04-19T22:51:02.955Z,59.10
2018-04-19T22:53:30.489Z,59.20
2018-04-19T22:55:58.018Z,59.40
2018-04-19T22:58:26.324Z,58.90
2018-04-19T23:00:53.933Z,58.90
2018-04-19T23:03:21.484Z,58.90
2018-04-19T23:05:49.079Z,58.80
2018-04-19T23:08:16.685Z,58.80
2018-04-19T23:10:44.973Z,59.40
2018-04-19T23:13:13.270Z,59.30
2018-04-19T23:15:40.806Z,59.30
2018-04-19T23:18:09.114Z,59.70
2018-04-19T23:20:36.635Z,59.70
2018-04-19T23:23:05.153Z,60.20
2018-04-19T23:25:32.688Z,60.10
2018-04-19T23:28:00.345Z,60.30
2018-04-19T23:30:27.838Z,60.40
2018-04-19T23:32:55.376Z,60.90
2018-04-19T23:35:22.927Z,60.90
2018-04-19T23:37:51.725Z,61.20
2018-04-19T23:40:19.242Z,61.10
2018-04-19T23:42:46.766Z,61.20
2018-04-19T23:45:14.328Z,61.40
2018-04-19T23:47:41.848Z,61.80
2018-04-19T23:50:10.140Z,62.20
2018-04-19T23:52:37.651Z,62.20
2018-04-19T23:55:05.180Z,62.70
2018-04-19T23:57:33.089Z,62.50
